KRNM

Ramona Airport

Ramona, California, USA
METAR KRNM 162153Z 31006KT 10SM CLR 22/02 A3010 RMK AO2 SLP187 T02170017 $
Observed Flight Rules
Dec-16 @ 21:53 UTC (9 minutes ago) Visual Flight Rules
Wind Visibility Clouds
310° at 6 knots 10 miles
  • Clear skies
Temperatures Readings
Current 22°C / 72°F
Dewpoint 2°C / 36°F
Humidity 27%
Altimeter 30.1" Hg
Pressure 1018.7 hPa
Elevation 427
METAR KRNM 162153Z 31006KT 10SM CLR 22/02 A3010 RMK AO2 SLP187 T02170017 $
Observed Flight Rules
Dec-16 @ 21:53 UTC
(9 minutes ago)
VFR
Wind Visibility
310° at 6 knots 10 miles
Clouds
  • Clear skies
Temperature Dewpoint
22°C / 72°F 2°C / 36°F
Humidity Altimeter Pressure
27% 30.1" Hg 1018.7 hPa